Time;durP1;ratioP1;P1;durP2;ratioP2;P2;SDS_P1;SDS_P2;PMS_P1;PMS_P2;Temp;Humidity;BMP_temperature;BMP_pressure;BME280_temperature;BME280_humidity;BME280_pressure;Samples;Min_cycle;Max_cycle;Signal;HPM_P1;HPM_P2
2022/12/26 00:01:24;;;;;;;6.23;5.43;;;11.30;99.90;;;;;;5089139;28;20244;-82
2022/12/26 00:03:51;;;;;;;10.90;5.77;;;11.40;99.90;;;;;;5088832;28;20206;-83
2022/12/26 00:06:21;;;;;;;7.20;5.30;;;11.30;99.90;;;;;;5085964;28;20209;-83
2022/12/26 00:08:48;;;;;;;9.10;5.90;;;11.30;99.90;;;;;;5085826;28;20244;-83
2022/12/26 00:11:16;;;;;;;9.03;5.07;;;11.20;99.90;;;;;;5089373;28;20217;-83
2022/12/26 00:13:45;;;;;;;7.37;4.70;;;11.30;99.90;;;;;;5087306;28;20201;-83
2022/12/26 00:16:13;;;;;;;6.57;4.87;;;11.20;99.90;;;;;;5087052;28;20201;-83
2022/12/26 00:18:40;;;;;;;8.27;4.97;;;11.30;99.90;;;;;;5090304;28;20619;-82
2022/12/26 00:21:08;;;;;;;6.63;5.03;;;11.30;99.90;;;;;;5090250;28;20289;-83
2022/12/26 00:23:35;;;;;;;7.53;5.27;;;11.20;99.90;;;;;;5087942;28;20224;-83
2022/12/26 00:26:03;;;;;;;9.63;5.40;;;11.10;99.90;;;;;;5090123;28;20210;-83
2022/12/26 00:28:30;;;;;;;7.20;5.03;;;11.20;99.90;;;;;;5087047;28;20230;-82
2022/12/26 00:30:58;;;;;;;8.90;5.87;;;11.20;99.90;;;;;;5090205;28;20583;-83
2022/12/26 00:33:25;;;;;;;7.67;5.53;;;11.30;99.90;;;;;;5093344;28;20205;-82
2022/12/26 00:35:52;;;;;;;9.10;6.10;;;11.30;99.90;;;;;;5088002;28;20204;-83
2022/12/26 00:38:18;;;;;;;8.83;6.07;;;11.20;99.90;;;;;;5091257;28;20224;-83
2022/12/26 00:40:45;;;;;;;9.47;6.20;;;11.20;99.90;;;;;;5091832;28;20208;-83
2022/12/26 00:43:12;;;;;;;9.23;6.63;;;11.30;99.90;;;;;;5088950;28;20194;-84
2022/12/26 00:45:39;;;;;;;7.97;6.50;;;11.10;99.90;;;;;;5087266;28;20198;-83
2022/12/26 00:48:07;;;;;;;7.87;5.77;;;11.10;99.90;;;;;;5082519;28;20214;-83
2022/12/26 00:50:34;;;;;;;9.17;5.70;;;11.00;99.90;;;;;;5084474;28;20222;-83
2022/12/26 00:53:01;;;;;;;7.73;5.60;;;11.10;99.90;;;;;;5084746;28;20201;-83
2022/12/26 00:55:27;;;;;;;9.13;6.00;;;11.00;99.90;;;;;;5086779;28;20600;-82
2022/12/26 00:57:54;;;;;;;8.37;6.17;;;11.00;99.90;;;;;;5088538;28;20589;-84
2022/12/26 01:00:21;;;;;;;7.80;5.90;;;11.10;99.90;;;;;;5090249;28;20212;-84
2022/12/26 01:02:48;;;;;;;9.97;6.30;;;11.00;99.90;;;;;;5083559;28;20210;-83
2022/12/26 01:05:16;;;;;;;7.57;5.00;;;11.00;99.90;;;;;;5085015;28;20285;-84
2022/12/26 01:07:43;;;;;;;8.03;5.83;;;11.00;99.90;;;;;;5091237;28;20588;-84
2022/12/26 01:10:12;;;;;;;8.03;5.57;;;11.00;99.90;;;;;;5090912;28;20217;-84
2022/12/26 01:12:39;;;;;;;8.13;5.77;;;11.00;99.90;;;;;;5096175;28;20212;-84
2022/12/26 01:15:08;;;;;;;6.17;5.20;;;11.00;99.90;;;;;;5091804;28;20783;-84
2022/12/26 01:17:35;;;;;;;8.93;6.50;;;10.90;99.90;;;;;;5095253;28;20607;-84
2022/12/26 01:20:02;;;;;;;9.20;6.17;;;11.00;99.90;;;;;;5093382;28;20696;-84
2022/12/26 01:22:30;;;;;;;9.10;6.57;;;11.00;99.90;;;;;;5097884;28;20201;-84
2022/12/26 01:24:58;;;;;;;11.17;7.23;;;11.00;99.90;;;;;;5095021;28;20205;-84
2022/12/26 01:27:25;;;;;;;10.13;6.40;;;11.00;99.90;;;;;;5098148;28;20231;-84
2022/12/26 01:29:53;;;;;;;8.97;6.43;;;10.90;99.90;;;;;;5101139;28;20699;-84
2022/12/26 01:32:20;;;;;;;9.93;6.17;;;10.90;99.90;;;;;;5097361;28;20276;-84
2022/12/26 01:34:46;;;;;;;9.83;7.67;;;10.90;99.90;;;;;;5095529;28;20281;-83
2022/12/26 01:37:14;;;;;;;9.10;6.33;;;10.90;99.90;;;;;;5096907;28;20223;-83
2022/12/26 01:39:42;;;;;;;8.83;6.40;;;10.80;99.90;;;;;;5095623;28;20220;-83
2022/12/26 01:42:13;;;;;;;10.30;7.10;;;10.80;99.90;;;;;;5096723;28;20572;-83
2022/12/26 01:45:02;;;;;;;8.83;7.10;;;10.70;99.90;;;;;;5094170;28;20204;-83
2022/12/26 01:47:38;;;;;;;10.23;6.33;;;10.90;99.90;;;;;;5080364;28;20232;-83
2022/12/26 01:50:07;;;;;;;9.33;5.97;;;10.90;99.90;;;;;;5091477;28;20228;-83
2022/12/26 01:52:39;;;;;;;10.63;6.70;;;10.70;99.90;;;;;;5092665;28;20638;-84
2022/12/26 01:55:11;;;;;;;8.13;5.97;;;10.80;99.90;;;;;;5088639;28;20216;-83
2022/12/26 01:57:42;;;;;;;8.00;6.17;;;10.80;99.90;;;;;;5095803;28;20701;-83
2022/12/26 02:00:09;;;;;;;8.33;6.33;;;10.80;99.90;;;;;;5091075;28;20198;-83
2022/12/26 02:05:34;;;;;;;8.47;6.10;;;10.80;99.90;;;;;;5095980;28;20646;-83
2022/12/26 02:08:03;;;;;;;9.03;6.30;;;10.80;99.90;;;;;;5096596;28;20721;-83
2022/12/26 02:10:33;;;;;;;8.23;6.33;;;10.80;99.90;;;;;;5096067;28;20251;-83
2022/12/26 02:13:00;;;;;;;7.50;6.10;;;10.80;99.90;;;;;;5094943;28;20228;-83
2022/12/26 02:15:27;;;;;;;9.17;6.03;;;10.80;99.90;;;;;;5088007;28;20228;-83
2022/12/26 02:17:54;;;;;;;10.10;6.90;;;10.70;99.90;;;;;;5096545;28;20232;-84
2022/12/26 02:20:24;;;;;;;9.67;7.30;;;10.80;99.90;;;;;;5096228;28;20208;-83
2022/12/26 02:23:24;;;;;;;10.00;7.50;;;10.80;99.90;;;;;;5095500;28;20198;-83
2022/12/26 02:26:30;;;;;;;11.63;8.17;;;10.80;99.90;;;;;;5069526;28;20197;-83
2022/12/26 02:29:20;;;;;;;12.47;8.30;;;10.90;99.90;;;;;;5090685;28;20217;-83
2022/12/26 02:31:56;;;;;;;12.73;8.57;;;11.00;99.90;;;;;;5090485;28;20587;-83
2022/12/26 02:34:27;;;;;;;11.83;8.77;;;10.90;99.90;;;;;;5094838;28;20205;-83
2022/12/26 02:37:06;;;;;;;12.67;8.53;;;11.00;99.90;;;;;;5096180;28;20287;-83
2022/12/26 02:39:50;;;;;;;11.37;8.90;;;11.00;99.90;;;;;;5095787;28;20205;-83
2022/12/26 02:42:26;;;;;;;10.87;8.83;;;11.00;99.90;;;;;;5094081;28;20293;-83
2022/12/26 02:47:52;;;;;;;11.57;8.27;;;11.00;99.90;;;;;;5095923;28;20700;-83
2022/12/26 03:13:18;;;;;;;11.87;8.20;;;10.90;99.90;;;;;;5084303;28;20209;-82
2022/12/26 03:18:41;;;;;;;11.93;9.10;;;10.90;99.90;;;;;;5080632;28;20237;-83
2022/12/26 03:21:11;;;;;;;11.70;8.63;;;10.80;99.90;;;;;;5104049;28;20200;-83
2022/12/26 03:23:41;;;;;;;11.63;8.70;;;10.80;99.90;;;;;;5093147;28;20201;-83
2022/12/26 03:30:47;;;;;;;12.17;9.03;;;10.70;99.90;;;;;;5104116;28;20220;-83
2022/12/26 03:31:42;;;;;;;12.50;9.63;;;10.70;99.90;;;;;;5100833;28;20256;-83
2022/12/26 03:34:18;;;;;;;11.97;9.20;;;10.70;99.90;;;;;;5091739;28;20366;-83
2022/12/26 03:37:01;;;;;;;12.40;9.27;;;10.70;99.90;;;;;;5088861;28;20675;-83
2022/12/26 04:19:49;;;;;;;13.07;8.73;;;10.40;99.90;;;;;;5074637;28;20205;-84
2022/12/26 04:44:50;;;;;;;13.33;9.10;;;10.20;99.90;;;;;;5096644;28;20851;-84
2022/12/26 04:47:17;;;;;;;13.47;9.20;;;10.20;99.90;;;;;;5115312;28;20578;-83
2022/12/26 04:55:13;;;;;;;14.63;10.00;;;10.40;99.90;;;;;;5095688;28;20490;-84
2022/12/26 04:57:39;;;;;;;13.93;9.73;;;10.20;99.90;;;;;;5091149;28;20237;-83
2022/12/26 05:00:09;;;;;;;15.00;9.37;;;10.20;99.90;;;;;;5077752;28;20548;-84
2022/12/26 05:10:49;;;;;;;14.27;10.00;;;10.30;99.90;;;;;;5076431;28;20229;-83
2022/12/26 05:13:15;;;;;;;12.40;8.60;;;10.30;99.90;;;;;;5090759;28;20235;-83
2022/12/26 05:29:27;;;;;;;12.30;8.43;;;10.20;99.90;;;;;;5089636;28;20204;-84
2022/12/26 05:31:55;;;;;;;12.07;8.67;;;10.30;99.90;;;;;;5093773;28;20264;-84
2022/12/26 05:34:21;;;;;;;12.27;8.40;;;10.10;99.90;;;;;;5097752;28;20212;-84
2022/12/26 05:36:50;;;;;;;12.03;9.23;;;10.10;99.90;;;;;;5097349;28;20229;-84
2022/12/26 05:39:17;;;;;;;14.73;9.63;;;10.20;99.90;;;;;;5078344;28;20313;-84
2022/12/26 05:41:44;;;;;;;15.43;10.23;;;10.20;99.90;;;;;;5076636;28;20201;-84
2022/12/26 05:44:11;;;;;;;16.57;10.93;;;10.20;99.90;;;;;;5092676;28;20211;-83
2022/12/26 05:46:41;;;;;;;15.47;10.60;;;10.30;99.90;;;;;;5095804;28;20278;-83
2022/12/26 05:49:09;;;;;;;14.90;10.53;;;10.40;99.90;;;;;;5078326;28;20733;-83
2022/12/26 05:51:36;;;;;;;14.80;10.10;;;10.30;99.90;;;;;;5077514;28;20210;-83
2022/12/26 05:54:03;;;;;;;13.03;9.30;;;10.30;99.90;;;;;;5085703;28;20201;-83
2022/12/26 05:56:30;;;;;;;15.03;9.20;;;10.30;99.90;;;;;;5101096;28;20201;-83
2022/12/26 05:58:59;;;;;;;13.10;8.70;;;10.40;99.90;;;;;;5099978;28;20322;-83
2022/12/26 06:01:27;;;;;;;13.53;9.10;;;10.40;99.90;;;;;;5091138;28;20198;-83
2022/12/26 06:03:56;;;;;;;13.00;8.67;;;10.40;99.90;;;;;;5091658;28;20232;-83
2022/12/26 06:06:25;;;;;;;12.40;8.10;;;10.40;99.90;;;;;;5091140;28;20224;-84
2022/12/26 06:08:55;;;;;;;11.70;8.10;;;10.50;99.90;;;;;;5076118;28;20695;-83
2022/12/26 06:11:24;;;;;;;10.73;7.37;;;10.50;99.90;;;;;;5078737;28;20218;-83
2022/12/26 06:13:51;;;;;;;10.67;7.73;;;10.50;99.90;;;;;;5094573;28;20209;-83
2022/12/26 06:16:18;;;;;;;9.73;6.70;;;10.60;99.90;;;;;;5097396;28;20214;-83
2022/12/26 06:18:47;;;;;;;11.73;7.80;;;10.60;99.90;;;;;;5081530;28;20257;-83
2022/12/26 06:21:16;;;;;;;11.77;7.83;;;10.40;99.90;;;;;;5077265;28;20206;-83
2022/12/26 06:23:45;;;;;;;9.57;7.17;;;10.50;99.90;;;;;;5093470;28;20198;-83
2022/12/26 06:26:12;;;;;;;10.50;7.70;;;10.70;99.90;;;;;;5093445;28;20197;-83
2022/12/26 06:28:39;;;;;;;9.97;7.40;;;10.50;99.90;;;;;;5090793;28;20225;-84
2022/12/26 06:31:08;;;;;;;10.97;7.47;;;10.50;99.90;;;;;;5078249;28;20283;-83
2022/12/26 06:33:35;;;;;;;10.03;6.57;;;10.60;99.90;;;;;;5094337;28;20212;-83
2022/12/26 06:36:04;;;;;;;9.97;6.40;;;10.50;99.90;;;;;;5091087;28;20206;-83
2022/12/26 06:38:31;;;;;;;9.97;6.77;;;10.60;99.90;;;;;;5095730;28;20712;-83
2022/12/26 06:40:59;;;;;;;12.33;7.17;;;10.60;99.90;;;;;;5096075;28;20224;-83
2022/12/26 06:43:26;;;;;;;10.80;6.77;;;10.60;99.90;;;;;;5093646;28;20583;-83
2022/12/26 06:45:56;;;;;;;8.93;6.10;;;10.60;99.90;;;;;;5096221;28;20668;-84
2022/12/26 06:48:23;;;;;;;9.13;6.30;;;10.60;99.90;;;;;;5087050;28;20226;-83
2022/12/26 06:50:50;;;;;;;8.03;6.00;;;10.60;99.90;;;;;;5074342;28;20226;-83
2022/12/26 06:53:17;;;;;;;7.10;5.50;;;10.60;99.90;;;;;;5081783;28;20205;-83
2022/12/26 06:55:43;;;;;;;7.30;5.47;;;10.50;99.90;;;;;;5094768;28;20201;-84
2022/12/26 06:58:12;;;;;;;7.53;5.57;;;10.50;99.90;;;;;;5077149;28;20599;-83
2022/12/26 07:00:38;;;;;;;7.67;5.43;;;10.50;99.90;;;;;;5094137;28;20200;-83
2022/12/26 07:03:05;;;;;;;7.80;5.87;;;10.50;99.90;;;;;;5090244;28;20199;-83
2022/12/26 07:05:32;;;;;;;9.33;6.07;;;10.50;99.90;;;;;;5094414;28;20210;-83
2022/12/26 07:07:59;;;;;;;9.00;6.00;;;10.50;99.90;;;;;;5083391;28;20228;-83
2022/12/26 07:10:25;;;;;;;7.37;5.70;;;10.40;99.90;;;;;;5076379;28;20210;-83
2022/12/26 07:12:52;;;;;;;7.13;5.63;;;10.30;99.90;;;;;;5092192;28;20208;-84
2022/12/26 07:15:20;;;;;;;9.17;6.23;;;10.30;99.90;;;;;;5095367;28;20210;-84
2022/12/26 07:17:47;;;;;;;9.13;5.60;;;10.30;99.90;;;;;;5104740;28;20221;-84
2022/12/26 07:20:14;;;;;;;8.43;5.63;;;10.20;99.90;;;;;;5098892;28;20197;-83
2022/12/26 07:22:41;;;;;;;10.23;6.37;;;10.30;99.90;;;;;;5095957;28;20198;-84
2022/12/26 07:25:08;;;;;;;8.93;6.03;;;10.30;99.90;;;;;;5094501;28;20205;-84
2022/12/26 07:27:35;;;;;;;8.90;6.00;;;10.20;99.90;;;;;;5094562;28;20221;-84
2022/12/26 07:30:02;;;;;;;8.37;6.03;;;10.20;99.90;;;;;;5096287;28;20204;-84
2022/12/26 07:32:30;;;;;;;7.50;5.10;;;10.20;99.90;;;;;;5092045;28;20701;-84
2022/12/26 07:34:57;;;;;;;7.43;5.23;;;10.20;99.90;;;;;;5089411;28;20205;-84
2022/12/26 07:37:23;;;;;;;6.87;5.20;;;10.10;99.90;;;;;;5096071;28;20221;-84
2022/12/26 07:39:50;;;;;;;8.33;6.53;;;10.10;99.90;;;;;;5095966;28;20201;-84
2022/12/26 07:42:19;;;;;;;8.07;5.60;;;10.10;99.90;;;;;;5093222;28;20191;-84
2022/12/26 07:44:46;;;;;;;8.23;6.10;;;10.00;99.90;;;;;;5095423;28;20212;-84
2022/12/26 07:47:13;;;;;;;9.13;5.63;;;10.00;99.90;;;;;;5095908;28;20202;-84
2022/12/26 07:49:41;;;;;;;6.17;4.77;;;10.00;99.90;;;;;;5095537;28;20194;-84
2022/12/26 07:52:07;;;;;;;8.57;5.70;;;10.00;99.90;;;;;;5095511;28;20221;-84
2022/12/26 07:54:34;;;;;;;6.33;4.80;;;10.00;99.90;;;;;;5094760;28;20240;-84
2022/12/26 07:57:01;;;;;;;7.37;4.83;;;10.00;99.90;;;;;;5093581;28;20198;-84
2022/12/26 07:59:28;;;;;;;8.00;5.07;;;10.10;99.90;;;;;;5087354;28;20202;-85
2022/12/26 08:01:56;;;;;;;6.33;4.83;;;10.10;99.90;;;;;;5094870;28;20202;-84
2022/12/26 08:04:23;;;;;;;7.00;4.97;;;10.20;99.90;;;;;;5095154;28;20280;-84
2022/12/26 08:06:51;;;;;;;7.77;5.07;;;10.20;99.90;;;;;;5092049;28;20208;-84
2022/12/26 08:09:18;;;;;;;6.43;4.43;;;10.20;99.90;;;;;;5095935;28;20232;-83
2022/12/26 08:11:46;;;;;;;7.53;4.77;;;10.30;99.90;;;;;;5093999;28;20217;-84
2022/12/26 08:14:15;;;;;;;5.73;4.10;;;10.40;99.90;;;;;;5095129;28;20197;-83
2022/12/26 08:16:42;;;;;;;6.23;4.57;;;10.10;99.90;;;;;;5093389;28;20727;-84
2022/12/26 08:19:09;;;;;;;6.50;4.50;;;10.20;99.90;;;;;;5098737;28;20217;-84
2022/12/26 08:21:35;;;;;;;6.37;4.63;;;10.20;99.90;;;;;;5099644;28;20220;-84
2022/12/26 08:24:04;;;;;;;6.50;4.37;;;10.20;99.90;;;;;;5100149;28;20198;-84
2022/12/26 08:26:31;;;;;;;6.80;4.93;;;10.30;99.90;;;;;;5100574;28;20205;-84
2022/12/26 08:28:57;;;;;;;5.43;4.33;;;10.30;99.90;;;;;;5095556;28;20221;-84
2022/12/26 08:31:24;;;;;;;8.10;5.23;;;10.30;99.90;;;;;;5098913;28;20221;-84
2022/12/26 08:33:55;;;;;;;7.40;4.80;;;10.40;99.90;;;;;;5099364;28;20210;-83
2022/12/26 08:36:22;;;;;;;8.07;5.00;;;10.40;99.90;;;;;;5099004;28;20570;-84
2022/12/26 08:38:49;;;;;;;9.17;5.33;;;10.40;99.90;;;;;;5097911;28;20221;-83
2022/12/26 08:41:17;;;;;;;7.70;5.93;;;10.30;99.90;;;;;;5099015;28;20190;-83
2022/12/26 08:43:47;;;;;;;8.20;5.93;;;10.40;99.90;;;;;;5098407;28;20258;-84
2022/12/26 08:46:14;;;;;;;9.00;6.00;;;10.30;99.90;;;;;;5098986;28;20205;-84
2022/12/26 08:48:42;;;;;;;9.00;6.10;;;10.40;99.90;;;;;;5098365;28;20221;-84
2022/12/26 08:51:12;;;;;;;8.53;6.83;;;10.30;99.90;;;;;;5096404;28;20217;-84
2022/12/26 08:53:39;;;;;;;9.00;6.80;;;10.40;99.90;;;;;;5091417;28;20672;-84
2022/12/26 08:56:08;;;;;;;11.00;7.40;;;10.40;99.90;;;;;;5099520;28;20561;-84
2022/12/26 08:58:36;;;;;;;11.73;7.43;;;10.40;99.90;;;;;;5095970;28;20312;-83
2022/12/26 09:01:07;;;;;;;10.03;7.37;;;10.50;99.90;;;;;;5099128;28;20662;-84
2022/12/26 09:03:34;;;;;;;9.90;7.27;;;10.50;99.90;;;;;;5096747;28;20212;-84
2022/12/26 09:06:02;;;;;;;8.97;6.87;;;10.50;99.90;;;;;;5098977;28;20202;-84
2022/12/26 09:08:29;;;;;;;10.10;7.67;;;10.50;99.90;;;;;;5098668;28;20248;-85
2022/12/26 09:10:56;;;;;;;10.17;7.37;;;10.50;99.90;;;;;;5098613;28;20665;-85
2022/12/26 09:13:23;;;;;;;8.93;6.73;;;10.60;99.90;;;;;;5098004;28;20243;-84
2022/12/26 09:15:51;;;;;;;11.20;7.70;;;10.60;99.90;;;;;;5099337;28;20201;-84
2022/12/26 09:18:18;;;;;;;11.47;7.73;;;10.60;99.90;;;;;;5098730;28;20217;-84
2022/12/26 09:20:45;;;;;;;11.17;7.70;;;10.60;99.90;;;;;;5088553;28;20209;-84
2022/12/26 09:23:14;;;;;;;11.23;8.07;;;10.60;99.90;;;;;;5113869;28;20667;-84
2022/12/26 09:25:41;;;;;;;14.80;8.93;;;10.60;99.90;;;;;;5096069;28;20601;-84
2022/12/26 09:28:07;;;;;;;17.13;9.50;;;10.60;99.90;;;;;;5083550;28;20237;-84
2022/12/26 09:30:34;;;;;;;18.23;10.27;;;10.60;99.90;;;;;;5077430;28;20214;-84
2022/12/26 09:33:03;;;;;;;13.37;9.30;;;10.60;99.90;;;;;;5076497;28;20313;-83
2022/12/26 09:35:29;;;;;;;13.27;9.50;;;10.70;99.90;;;;;;5091502;28;20278;-83
2022/12/26 09:37:56;;;;;;;12.57;9.40;;;10.70;99.90;;;;;;5097296;28;20220;-84
2022/12/26 09:40:26;;;;;;;13.73;10.17;;;10.70;99.90;;;;;;5089922;28;20201;-83
2022/12/26 09:43:07;;;;;;;13.37;9.43;;;10.70;99.90;;;;;;5090488;28;20213;-84
2022/12/26 09:45:53;;;;;;;12.50;9.40;;;10.70;99.90;;;;;;5083039;28;20208;-84
2022/12/26 09:48:27;;;;;;;12.83;9.40;;;10.70;99.90;;;;;;5082556;28;20220;-85
2022/12/26 09:50:54;;;;;;;12.03;9.17;;;10.70;99.90;;;;;;5094302;28;20198;-85
2022/12/26 09:53:30;;;;;;;12.93;9.57;;;10.70;99.90;;;;;;5079623;28;20226;-84
2022/12/26 09:56:01;;;;;;;16.37;11.07;;;10.80;99.90;;;;;;5092314;28;20209;-85
2022/12/26 09:58:30;;;;;;;17.30;11.83;;;10.80;99.90;;;;;;5089580;28;20244;-85
2022/12/26 10:01:02;;;;;;;16.77;11.40;;;10.80;99.90;;;;;;5098581;28;20202;-85
2022/12/26 10:03:37;;;;;;;13.97;10.50;;;10.80;99.90;;;;;;5098419;28;20684;-85
2022/12/26 10:06:12;;;;;;;16.07;10.77;;;10.80;99.90;;;;;;5091219;28;20201;-85
2022/12/26 10:08:58;;;;;;;17.67;11.83;;;10.80;99.90;;;;;;5092393;28;20705;-85
2022/12/26 10:11:35;;;;;;;14.00;9.07;;;10.80;99.90;;;;;;5097841;28;20209;-84
2022/12/26 10:14:09;;;;;;;11.40;8.63;;;10.90;99.90;;;;;;5098523;28;20201;-85
2022/12/26 10:16:47;;;;;;;13.07;9.20;;;11.00;99.90;;;;;;5112764;28;20197;-85
2022/12/26 10:19:39;;;;;;;11.97;7.97;;;11.00;99.90;;;;;;5098444;28;20290;-85
2022/12/26 10:22:27;;;;;;;12.90;9.10;;;11.00;99.90;;;;;;5097026;28;20222;-84
2022/12/26 10:24:57;;;;;;;13.13;8.67;;;11.00;99.90;;;;;;5077471;28;20264;-83
2022/12/26 10:27:26;;;;;;;13.90;8.43;;;11.10;99.90;;;;;;5081797;28;20301;-84
2022/12/26 10:29:58;;;;;;;10.13;7.57;;;11.10;99.90;;;;;;5097667;28;20676;-84
2022/12/26 10:32:33;;;;;;;10.67;7.47;;;11.10;99.90;;;;;;5091436;28;20225;-84
2022/12/26 10:35:02;;;;;;;11.23;7.37;;;11.20;99.90;;;;;;5098478;28;20665;-84
2022/12/26 10:37:35;;;;;;;10.80;6.93;;;11.20;99.90;;;;;;5094308;28;20224;-86
2022/12/26 10:40:14;;;;;;;8.77;6.43;;;11.20;99.90;;;;;;5094267;28;20239;-83
2022/12/26 10:42:42;;;;;;;7.23;6.40;;;11.20;99.90;;;;;;5095840;28;20288;-83
2022/12/26 10:45:17;;;;;;;6.97;5.67;;;11.30;99.90;;;;;;5098574;28;20261;-84
2022/12/26 10:47:48;;;;;;;9.50;6.87;;;11.30;99.90;;;;;;5095200;28;20216;-82
2022/12/26 10:50:18;;;;;;;7.73;6.37;;;11.40;99.90;;;;;;5096232;28;20206;-82
2022/12/26 10:52:45;;;;;;;9.40;7.53;;;11.40;99.90;;;;;;5097774;28;20214;-82
2022/12/26 10:55:15;;;;;;;9.97;7.27;;;11.30;99.90;;;;;;5098506;28;20201;-82
2022/12/26 10:57:44;;;;;;;8.53;6.50;;;11.40;99.90;;;;;;5096416;28;20259;-82
2022/12/26 11:00:16;;;;;;;8.03;6.20;;;11.40;99.90;;;;;;5095356;28;20203;-83
2022/12/26 11:02:43;;;;;;;7.03;6.23;;;11.50;99.90;;;;;;5097531;28;20198;-82
2022/12/26 11:05:12;;;;;;;8.33;6.83;;;11.60;99.90;;;;;;5097290;28;20205;-82
2022/12/26 11:07:44;;;;;;;10.10;7.30;;;11.60;99.90;;;;;;5097351;28;20306;-82
2022/12/26 11:10:18;;;;;;;9.07;7.03;;;11.50;99.90;;;;;;5088184;28;20224;-82
2022/12/26 11:12:49;;;;;;;7.47;6.47;;;11.60;99.90;;;;;;5096796;28;20279;-83
2022/12/26 11:15:31;;;;;;;9.63;6.40;;;11.60;99.90;;;;;;5094070;28;20575;-82
2022/12/26 11:18:09;;;;;;;8.27;6.67;;;11.50;99.90;;;;;;5097179;28;20749;-83
2022/12/26 11:20:36;;;;;;;7.80;6.60;;;11.60;99.90;;;;;;5097398;28;20205;-82
2022/12/26 11:23:26;;;;;;;8.33;6.50;;;11.60;99.90;;;;;;5097260;28;20196;-83
2022/12/26 11:25:55;;;;;;;8.43;6.60;;;11.70;99.90;;;;;;5090551;28;20280;-83
2022/12/26 11:28:28;;;;;;;7.43;6.67;;;11.70;99.90;;;;;;5090404;28;20213;-83
2022/12/26 11:30:56;;;;;;;8.00;6.57;;;11.60;99.90;;;;;;5096872;28;20200;-83
2022/12/26 11:33:29;;;;;;;6.70;5.73;;;11.70;99.90;;;;;;5098297;28;20215;-84
2022/12/26 11:36:08;;;;;;;8.27;4.97;;;11.70;99.90;;;;;;5098101;28;20193;-83
2022/12/26 11:38:51;;;;;;;8.43;5.27;;;11.80;99.90;;;;;;5084133;28;20217;-83
2022/12/26 11:41:31;;;;;;;7.10;5.20;;;11.70;99.90;;;;;;5093271;28;20580;-83
2022/12/26 11:44:04;;;;;;;3.63;3.17;;;11.70;99.90;;;;;;5092915;28;20205;-84
2022/12/26 11:46:38;;;;;;;4.50;3.70;;;11.70;99.90;;;;;;5094992;28;20209;-83
2022/12/26 11:49:06;;;;;;;4.87;3.97;;;11.70;99.90;;;;;;5088198;28;20227;-83
2022/12/26 11:51:40;;;;;;;6.77;3.70;;;11.70;99.90;;;;;;5086378;28;20583;-83
2022/12/26 11:54:27;;;;;;;3.60;3.30;;;11.70;99.90;;;;;;5082111;28;20701;-83
2022/12/26 11:57:03;;;;;;;4.13;3.23;;;11.80;99.90;;;;;;5089586;28;20240;-83
2022/12/26 11:59:30;;;;;;;3.40;3.10;;;11.70;99.90;;;;;;5082371;28;20202;-82
2022/12/26 12:02:17;;;;;;;5.73;4.13;;;11.70;99.90;;;;;;5075917;28;20700;-83
2022/12/26 12:04:45;;;;;;;3.83;3.50;;;11.70;99.90;;;;;;5086622;28;20569;-83
2022/12/26 12:07:22;;;;;;;8.00;3.60;;;11.60;99.90;;;;;;5089843;28;20205;-83
2022/12/26 12:09:56;;;;;;;7.20;2.97;;;11.60;99.90;;;;;;5078715;28;20212;-85
2022/12/26 12:12:31;;;;;;;6.27;3.63;;;11.70;99.90;;;;;;5088323;28;20217;-83
2022/12/26 12:15:03;;;;;;;4.70;3.07;;;11.70;99.90;;;;;;5089682;28;20578;-83
2022/12/26 12:17:36;;;;;;;4.87;3.27;;;11.70;99.90;;;;;;5085142;28;20231;-83
2022/12/26 12:20:24;;;;;;;3.90;3.50;;;11.70;99.90;;;;;;5091941;28;20284;-83
2022/12/26 12:23:05;;;;;;;5.47;3.27;;;11.70;99.90;;;;;;5109824;28;20733;-83
2022/12/26 12:25:44;;;;;;;3.87;3.10;;;11.80;99.90;;;;;;5084972;28;20212;-82
2022/12/26 12:28:40;;;;;;;4.30;3.13;;;11.70;99.90;;;;;;5084720;28;20232;-83
2022/12/26 12:31:17;;;;;;;3.93;3.53;;;11.70;99.90;;;;;;5075172;28;20199;-83
2022/12/26 12:33:52;;;;;;;5.97;3.73;;;11.60;99.90;;;;;;5075733;28;20226;-84
2022/12/26 12:36:24;;;;;;;5.03;3.70;;;11.70;99.90;;;;;;5088697;28;20196;-83
2022/12/26 12:39:02;;;;;;;6.27;3.60;;;11.70;99.90;;;;;;5091490;28;20218;-83
2022/12/26 12:41:43;;;;;;;6.77;4.10;;;11.60;99.90;;;;;;5089754;28;20189;-83
2022/12/26 12:44:15;;;;;;;4.77;3.37;;;11.50;99.90;;;;;;5090934;28;20204;-82
2022/12/26 12:46:52;;;;;;;6.20;3.40;;;11.60;99.90;;;;;;5093214;28;20210;-83
2022/12/26 12:49:35;;;;;;;5.00;3.10;;;11.50;99.90;;;;;;5095597;28;20225;-83
2022/12/26 12:52:15;;;;;;;5.30;3.50;;;11.50;99.90;;;;;;5092666;28;20483;-83
2022/12/26 12:55:17;;;;;;;6.57;3.33;;;11.60;99.90;;;;;;5090727;28;20461;-83
2022/12/26 12:57:52;;;;;;;4.53;3.30;;;11.70;99.90;;;;;;5085655;28;20236;-83
2022/12/26 13:00:22;;;;;;;3.93;2.67;;;11.90;99.90;;;;;;5093150;28;20208;-83
2022/12/26 13:02:55;;;;;;;3.17;2.73;;;12.10;99.90;;;;;;5088464;28;20203;-83
2022/12/26 13:05:30;;;;;;;6.33;3.10;;;12.40;99.90;;;;;;5079074;28;20202;-83
2022/12/26 13:08:02;;;;;;;3.97;2.90;;;12.40;99.90;;;;;;5100091;28;20221;-83
2022/12/26 13:10:33;;;;;;;4.37;2.80;;;12.30;99.90;;;;;;5079994;28;20717;-82
2022/12/26 13:13:18;;;;;;;3.53;2.77;;;12.30;99.90;;;;;;5077561;28;20699;-82
2022/12/26 13:15:49;;;;;;;5.03;2.90;;;12.10;99.90;;;;;;5090290;28;20224;-83
2022/12/26 13:18:21;;;;;;;4.87;2.63;;;12.00;99.90;;;;;;5094063;28;20697;-83
2022/12/26 13:20:52;;;;;;;3.33;2.80;;;11.90;99.90;;;;;;5099259;28;20289;-82
2022/12/26 13:26:14;;;;;;;5.57;3.70;;;11.80;99.90;;;;;;5096370;28;20200;-82
2022/12/26 13:28:52;;;;;;;6.63;3.13;;;11.80;99.90;;;;;;5089379;28;20589;-83
2022/12/26 13:31:20;;;;;;;6.97;3.07;;;11.80;99.90;;;;;;5098018;28;20233;-83
2022/12/26 13:33:47;;;;;;;3.73;2.17;;;11.80;99.90;;;;;;5087728;28;20222;-83
2022/12/26 13:36:39;;;;;;;4.33;2.30;;;11.70;99.90;;;;;;5078541;28;20210;-83
2022/12/26 13:39:35;;;;;;;2.53;2.33;;;11.80;99.90;;;;;;5077994;28;20594;-82
2022/12/26 13:45:35;;;;;;;4.53;2.43;;;11.80;99.90;;;;;;5091565;28;20208;-83
2022/12/26 13:48:24;;;;;;;3.53;2.07;;;11.80;99.90;;;;;;5082265;28;20230;-85
2022/12/26 13:50:52;;;;;;;3.87;2.37;;;11.70;99.90;;;;;;5094073;28;20209;-83
2022/12/26 13:53:31;;;;;;;4.93;2.53;;;11.70;99.90;;;;;;5093314;28;20217;-83
2022/12/26 13:55:59;;;;;;;4.17;2.33;;;11.70;99.90;;;;;;5084829;28;20198;-83
2022/12/26 13:58:41;;;;;;;3.00;2.30;;;11.60;99.90;;;;;;5088528;28;20233;-83
2022/12/26 14:01:25;;;;;;;2.60;2.40;;;11.70;99.90;;;;;;5091084;28;20201;-84
2022/12/26 14:04:08;;;;;;;5.13;2.50;;;11.70;99.90;;;;;;5087639;28;20552;-83
2022/12/26 14:06:54;;;;;;;3.00;2.80;;;11.70;99.90;;;;;;5078552;28;20203;-83
2022/12/26 14:09:39;;;;;;;3.77;3.10;;;11.60;99.90;;;;;;5093936;28;20761;-83
2022/12/26 14:12:39;;;;;;;3.40;3.10;;;11.30;99.90;;;;;;5092731;28;20650;-83
2022/12/26 14:15:42;;;;;;;6.47;3.20;;;11.10;99.90;;;;;;5095041;28;20194;-83
2022/12/26 14:18:23;;;;;;;2.37;2.17;;;10.80;99.90;;;;;;5043675;28;20629;-82
2022/12/26 14:20:59;;;;;;;2.60;1.50;;;10.30;99.90;;;;;;5054415;28;20210;-82
2022/12/26 14:23:42;;;;;;;2.03;1.60;;;10.10;99.90;;;;;;5077959;28;20197;-82
2022/12/26 14:26:22;;;;;;;2.17;1.97;;;10.00;99.90;;;;;;5082692;28;20198;-82
2022/12/26 14:29:00;;;;;;;3.97;2.30;;;9.90;99.90;;;;;;5096287;28;20228;-82
2022/12/26 14:31:39;;;;;;;3.50;2.63;;;9.90;99.90;;;;;;5086428;28;20288;-82
2022/12/26 14:34:17;;;;;;;3.50;2.50;;;9.90;99.90;;;;;;5085690;28;20222;-83
2022/12/26 14:36:53;;;;;;;3.40;3.10;;;9.80;99.90;;;;;;5091049;28;20189;-83
2022/12/26 14:39:30;;;;;;;3.93;2.70;;;9.80;99.90;;;;;;5093115;28;20206;-84
2022/12/26 14:45:43;;;;;;;4.00;2.77;;;9.70;99.90;;;;;;5035061;28;20241;-83
2022/12/26 14:48:43;;;;;;;5.13;2.63;;;9.70;99.90;;;;;;5033819;28;20604;-84
2022/12/26 14:51:38;;;;;;;2.47;2.20;;;9.70;99.90;;;;;;5086629;28;20212;-83
2022/12/26 14:54:36;;;;;;;3.17;2.00;;;9.70;99.90;;;;;;5082922;28;20252;-83
2022/12/26 14:57:46;;;;;;;2.90;1.80;;;9.60;99.90;;;;;;5069453;28;20564;-83
2022/12/26 15:00:25;;;;;;;6.67;2.10;;;9.60;99.90;;;;;;5097774;28;20310;-84
2022/12/26 15:03:29;;;;;;;5.10;1.73;;;9.40;99.90;;;;;;5093146;28;20206;-85
2022/12/26 15:06:12;;;;;;;3.83;1.53;;;9.10;99.90;;;;;;5088208;28;20205;-84
2022/12/26 15:08:54;;;;;;;3.43;1.00;;;8.90;99.90;;;;;;5082082;28;20312;-84
2022/12/26 15:11:43;;;;;;;4.90;1.20;;;8.80;99.90;;;;;;5075152;28;20205;-83
2022/12/26 15:14:54;;;;;;;4.30;1.57;;;8.60;99.90;;;;;;5098881;28;20226;-84
2022/12/26 15:17:31;;;;;;;4.90;1.63;;;8.50;99.90;;;;;;5094953;28;20213;-86
2022/12/26 15:20:43;;;;;;;5.20;1.40;;;8.30;99.90;;;;;;5104499;28;20224;-84
2022/12/26 15:23:52;;;;;;;4.73;1.23;;;8.30;99.90;;;;;;5099249;28;20202;-83
2022/12/26 15:26:59;;;;;;;2.63;1.60;;;8.30;99.90;;;;;;5091997;28;20194;-83